• Join FlightAware (Why Join?)
  • Login
  • US Flag 
Trick or treat! (Boo!!) 
04:11PM EDT


 

Airport Tracker/Info


-or-


 

Live Flight TrackerFlight Track Log ✈ SWA4758 ✈ 09-Jun-2014 ✈ KFLL - KIND

Flight Track Log - Related Links

Times and Time Zones

All times are in EDT time to prevent confusion due to time zone crossing. See the SWA4758 flight status page for this flight to view local times or setup timezone preferences in your user account.

Time Position Orientation Groundspeed Altitude Reporting Facility
EDT Latitude Longitude Course Direction KTS MPH feet Rate Location/Type
06:19PM 26.0756 -80.1706 276° West 157 181 700  Level Miami Center
06:20PM 26.0789 -80.2047 276° West 161 185 1,600 1,740 Climbing Miami Center
06:21PM 26.0983 -80.2442 299° West 230 265 3,000 1,920 Climbing Miami Center
06:21PM 26.1169 -80.2475 351° North 217 250 3,600 1,920 Climbing Miami Center
06:22PM 26.1878 -80.2711 343° North 266 306 5,900 3,120 Climbing Miami Center
06:23PM 26.2761 -80.2997 344° North 274 315 10,100 3,120 Climbing Miami Center
06:24PM 26.3603 -80.3281 343° North 329 379 12,300 2,520 Climbing Miami Center
06:25PM 26.4622 -80.3614 344° North 353 406 15,300 2,820 Climbing Miami Center
06:26PM 26.5639 -80.3939 344° North 375 432 18,100 2,580 Climbing Miami Center
06:27PM 26.6508 -80.4631 325° Northwest 387 445 20,600 2,160 Climbing Miami Center
06:28PM 26.7486 -80.5464 323° Northwest 410 472 22,600 1,800 Climbing Miami Center
06:29PM 26.8261 -80.6125 323° Northwest 417 480 24,300 1,800 Climbing Miami Center
06:30PM 26.9414 -80.7108 323° Northwest 433 498 26,400 1,740 Climbing Miami Center
06:31PM 27.0397 -80.7942 323° Northwest 442 509 27,900 1,320 Climbing Miami Center
06:32PM 27.1414 -80.8817 323° Northwest 456 525 29,200 1,320 Climbing Miami Center
06:33PM 27.2467 -80.9722 323° Northwest 470 541 30,700 1,620 Climbing Miami Center
06:34PM 27.3517 -81.0619 323° Northwest 477 549 32,600 1,560 Climbing Miami Center
06:35PM 27.4572 -81.1542 322° Northwest 474 545 34,000 1,320 Climbing Miami Center
06:37PM 27.5639 -81.2464 323° Northwest 477 549 35,400 1,320 Climbing Miami Center
06:38PM 27.6697 -81.3372 323° Northwest 477 549 36,800 1,260 Climbing Miami Center
06:39PM 27.7936 -81.4439 323° Northwest 471 542 38,000 540 Climbing Miami Center
06:40PM 27.8986 -81.5361 322° Northwest 471 542 38,000  Level Miami Center
06:41PM 28.0031 -81.6269 322° Northwest 470 541 38,000  Level Miami Center
06:42PM 28.1072 -81.7178 322° Northwest 470 541 38,000  Level Miami Center
06:43PM 28.2103 -81.8075 323° Northwest 469 540 38,000  Level Miami Center
06:44PM 28.3119 -81.8972 322° Northwest 464 534 38,000  Level Miami Center
06:45PM 28.4214 -81.9947 322° Northwest 465 535 38,000  Level Miami Center
06:46PM 28.5233 -82.0831 323° Northwest 464 534 38,000  Level Miami Center
06:47PM 28.6244 -82.1736 322° Northwest 464 534 38,000  Level Miami Center
06:48PM 28.7261 -82.2642 322° Northwest 464 534 38,000  Level Miami Center
06:49PM 28.8333 -82.3461 326° Northwest 464 534 38,000  Level Miami Center
06:50PM 28.9589 -82.3936 342° North 469 540 38,000  Level Miami Center
06:51PM 29.1039 -82.4561 339° North 468 539 38,000  Level Miami Center
06:52PM 29.2261 -82.5083 340° North 468 539 38,000  Level Miami Center
06:53PM 29.3483 -82.5586 340° North 468 539 38,000  Level Miami Center
06:54PM 29.4700 -82.6094 340° North 468 539 38,000  Level Miami Center
06:55PM 29.5914 -82.6594 340° North 467 537 38,000  Level Miami Center
06:56PM 29.7256 -82.7181 339° North 475 547 38,000  Level Jacksonville Center
06:57PM 29.8489 -82.7706 340° North 475 547 38,000  Level Jacksonville Center
06:58PM 29.9681 -82.8231 339° North 470 541 38,000  Level Jacksonville Center
06:59PM 30.1058 -82.8758 342° North 470 541 38,000  Level Jacksonville Center
07:00PM 30.2247 -82.9261 340° North 465 535 38,000  Level Jacksonville Center
07:01PM 30.3500 -82.9792 340° North 465 535 38,000  Level Jacksonville Center
07:02PM 30.4689 -83.0300 340° North 465 535 38,000  Level Jacksonville Center
07:03PM 30.5942 -83.0833 340° North 465 535 38,000  Level Jacksonville Center
07:04PM 30.7153 -83.1367 339° North 465 535 38,000  Level Jacksonville Center
07:05PM 30.8092 -83.1756 340° North 465 535 38,000  Level Jacksonville Center
07:06PM 30.9531 -83.2317 342° North 460 529 38,000  Level Jacksonville Center
07:07PM 31.0803 -83.2686 346° North 460 529 38,000  Level Jacksonville Center
07:10PM 31.4214 -83.3744 345° North 448 516 38,000  Level Atlanta Center
07:11PM 31.5447 -83.4103 346° North 448 516 38,000  Level Atlanta Center
07:12PM 31.6700 -83.4458 346° North 453 521 38,000  Level Atlanta Center
07:13PM 31.7975 -83.4842 346° North 458 527 38,000  Level Atlanta Center
07:14PM 31.9231 -83.5250 345° North 458 527 38,000  Level Atlanta Center
07:15PM 32.0461 -83.5658 344° North 458 527 38,000  Level Atlanta Center
07:16PM 32.1717 -83.6044 345° North 458 527 38,000  Level Atlanta Center
07:17PM 32.2969 -83.6433 345° North 458 527 38,000  Level Atlanta Center
07:18PM 32.4222 -83.6819 345° North 458 527 38,000  Level Atlanta Center
07:19PM 32.5478 -83.7233 344° North 458 527 38,000  Level Atlanta Center
07:20PM 32.6731 -83.7625 345° North 458 527 38,000  Level Atlanta Center
07:21PM 32.7983 -83.8017 345° North 458 527 38,000  Level Atlanta Center
07:22PM 32.9236 -83.8383 346° North 453 521 38,000  Level Atlanta Center
07:23PM 33.0469 -83.8778 345° North 453 521 38,000  Level Atlanta Center
07:24PM 33.1700 -83.9147 346° North 453 521 38,000  Level Atlanta Center
07:25PM 33.2953 -83.9567 344° North 453 521 38,000  Level Atlanta Center
07:26PM 33.4164 -83.9939 346° North 453 521 38,000  Level Atlanta Center
07:27PM 33.5564 -84.0364 346° North 460 529 38,000  Level Atlanta Center
07:28PM 33.6794 -84.0761 345° North 460 529 38,000  Level Atlanta Center
07:29PM 33.8047 -84.1164 345° North 455 524 38,000  Level Atlanta Center
07:30PM 33.9300 -84.1539 346° North 455 524 38,000  Level Atlanta Center
07:31PM 34.0550 -84.1967 344° North 455 524 38,000  Level Atlanta Center
07:32PM 34.1803 -84.2372 345° North 449 517 38,000  Level Atlanta Center
07:33PM 34.3011 -84.2750 346° North 454 522 38,000  Level Atlanta Center
07:34PM 34.4242 -84.3183 344° North 454 522 38,000  Level Atlanta Center
07:35PM 34.5514 -84.3592 345° North 454 522 38,000  Level Atlanta Center
07:36PM 34.6744 -84.4000 345° North 454 522 38,000  Level Atlanta Center
07:37PM 34.7994 -84.4411 345° North 454 522 38,000  Level Atlanta Center
07:38PM 34.9247 -84.4847 344° North 454 522 38,000  Level Atlanta Center
07:39PM 35.0308 -84.5208 344° North 449 517 38,000  Level Atlanta Center
07:40PM 35.1558 -84.5594 346° North 449 517 38,000  Level Atlanta Center
07:41PM 35.2789 -84.6011 345° North 454 522 38,000  Level Atlanta Center
07:42PM 35.4039 -84.6425 345° North 454 522 38,000  Level Atlanta Center
07:43PM 35.5247 -84.6817 345° North 454 522 38,000  Level Atlanta Center
07:44PM 35.6456 -84.7236 344° North 454 522 38,000  Level Atlanta Center
07:45PM 35.7683 -84.7606 346° North 454 522 38,000  Level Atlanta Center
07:47PM 35.9889 -84.8389 344° North 459 528 38,000  Level Indianapolis Center
07:48PM 36.1081 -84.8781 345° North 455 524 38,000  Level Indianapolis Center
07:49PM 36.2281 -84.9197 344° North 451 519 38,000  Level Indianapolis Center
07:50PM 36.3475 -84.9608 345° North 450 518 38,000  Level Indianapolis Center
07:51PM 36.4669 -85.0025 344° North 450 518 38,000  Level Indianapolis Center
07:52PM 36.6114 -85.0494 345° North 449 517 38,000 -300 Level Indianapolis Center
07:53PM 36.7325 -85.0822 348° North 447 514 37,500 -720 Descending Indianapolis Center
07:54PM 36.8533 -85.1183 347° North 447 514 36,600 -960 Descending Indianapolis Center
07:55PM 36.9786 -85.1547 347° North 456 525 35,600 -960 Descending Indianapolis Center
07:56PM 37.0978 -85.1897 347° North 458 527 34,700 -1,080 Descending Indianapolis Center
07:57PM 37.2439 -85.2328 347° North 461 531 33,500 -1,080 Descending Indianapolis Center
07:58PM 37.3661 -85.2700 346° North 456 525 32,500 -780 Descending Indianapolis Center
07:59PM 37.4883 -85.3067 347° North 454 522 32,000 -300 Descending Indianapolis Center
08:00PM 37.6111 -85.3417 347° North 454 522 32,000  Level Indianapolis Center
08:01PM 37.7331 -85.3764 347° North 453 521 32,000  Level Indianapolis Center
08:02PM 37.8497 -85.4117 347° North 444 511 32,000  Level Indianapolis Center
08:03PM 37.9689 -85.4483 346° North 441 507 32,000  Level Indianapolis Center
08:04PM 38.1106 -85.4906 347° North 439 505 32,000 -780 Level Indianapolis Center
08:05PM 38.2300 -85.5261 347° North 439 505 30,500 -1,920 Descending Indianapolis Center
08:06PM 38.3461 -85.5622 346° North 435 501 28,100 -2,100 Descending Indianapolis Center
08:07PM 38.4606 -85.5969 347° North 426 490 26,200 -2,040 Descending Indianapolis Center
08:08PM 38.5725 -85.6311 347° North 420 483 24,000 -2,280 Descending Indianapolis Center
08:09PM 38.6878 -85.6539 351° North 412 474 21,500 -2,400 Descending Indianapolis Center
08:10PM 38.7997 -85.6739 352° North 411 473 19,100 -2,100 Descending Indianapolis Center
08:11PM 38.9083 -85.6928 352° North 401 461 17,200 -1,920 Descending Indianapolis Center
08:12PM 39.0289 -85.7158 352° North 372 428 15,200 -1,560 Descending Indianapolis Center
08:13PM 39.1214 -85.7317 352° North 347 399 14,100 -1,020 Descending Indianapolis Center
08:14PM 39.2097 -85.7483 352° North 326 375 13,100 -1,020 Descending Indianapolis Center
08:15PM 39.2981 -85.7644 352° North 325 374 12,100 -1,020 Descending Indianapolis Center
08:16PM 39.3664 -85.8311 323° Northwest 317 365 11,100 -1,080 Descending Indianapolis Center
08:17PM 39.4278 -85.9036 318° Northwest 305 351 10,000 -1,020 Descending Indianapolis Center
08:18PM 39.4872 -85.9744 317° Northwest 298 343 9,000 -1,080 Descending Indianapolis Center
08:20PM 39.5583 -86.0608 317° Northwest 295 339 7,800 -1,320 Descending Indianapolis Center
08:21PM 39.5714 -86.1631 279° West 292 336 6,300 -1,380 Descending Indianapolis Center
08:22PM 39.5800 -86.2633 276° West 284 327 5,000 -900 Descending Indianapolis Center
08:23PM 39.5936 -86.3433 282° West 235 270 4,500 -900 Descending Indianapolis Center
08:24PM 39.6292 -86.3858 317° Northwest 200 230 3,200 -1,320 Descending Indianapolis Center
08:25PM 39.6672 -86.3708 17° North 170 196 1,800 -1,020 Descending Indianapolis Center
08:26PM 39.6939 -86.3364 45° Northeast 148 170 1,100 -540 Descending Indianapolis Center
08:27PM 39.7250 -86.2967 44° Northeast 143 165 700 -420 Descending Indianapolis Center